Terminal Aerodrome Forecast
Issued by NWS

Home | Current Version | Previous Version | Graphics & Text | Print | Product List | Glossary On
Versions: 1 2 3 4 5 6 7 8 9 10 11 12 13 14 15 16 17 18 19 20
000
FTUS43 KBIS 191120
TAFDIK
TAF
KDIK 191120Z 1912/2012 00000KT 1/4SM FZFG VV002
     FM191400 13005KT 3/4SM BR SCT015
     FM191500 14006KT 4SM BR SCT030
     FM191700 13009KT P6SM FEW250=

USA.gov is the U.S. government's official web portal to all federal, state and local government web resources and services.